Dutchess County Airport
KPOU : now visible

Airfield :











YOU CAN JOIN US ON...

 
LOGIN :

Register | Disclaimer

   EN    FR    IT 

 









Legend :    VFR   Marginal VFR   IFR   Intensive IFR   Very Intensive IFR
Visi :
Ceiling :
>= 8 km
>= 3000ft
5 to 8 km
1000 to 3000 ft
1500m to 5 km
500 to 1000 ft
800 to 1500m
200 to 500 ft
< 800m
< 200 ft
Symbols :   Thunderstorms  Fog  Heavy snow  Heavy precipitations  Wind > 20 kt






- Airport Elevation : 165 ft
- IATA code : POU


KPOU - Dutchess County

CURRENT METAR :
  • 280346Z AUTO 00000KT 7SM SCT010 BKN017 OVC024 20/19 A2968 RMK AO2 T02000189 $

EXPIRED METARs :
  • 280253Z AUTO 14006KT 8SM BKN012 BKN022 OVC026 21/19 A2969 RMK AO2 PRESFR SLP048 6//// T02060189 50003 $
  • 280240Z AUTO 15003KT 8SM BKN012 OVC022 21/19 A2970 RMK AO2 T02060194 $
  • 280218Z AUTO 16003KT 8SM SCT021 BKN028 BKN110 21/19 A2971 RMK AO2 T02060189 $
  • 280153Z AUTO 15004KT 7SM FEW022 SCT080 SCT110 21/19 A2971 RMK AO2 SLP055 T02060194 $
  • 280113Z 00000KT 8SM SCT023 21/19 A2968 RMK AO2 T02110194 $
  • 280053Z 17004KT 9SM FEW016 OVC023 21/19 A2968 RMK AO2 SLP046 T02110194 $
  • 272353Z 00000KT 9SM OVC020 21/19 A2968 RMK AO2 RAE11B32E41 SLP046 6//// T02110194 10256 20206 55006 PNO $
  • 272325Z 14005KT 2SM BR SCT021 BKN025 OVC031 21/19 A2968 RMK AO2 RAE11 T02110194 PNO $
  • 272253Z 13008KT 2SM -RA BR BKN044 BKN070 OVC090 21/19 A2967 RMK AO2 SLP044 T02060194 PNO $

TAF KPOU
Valid from the 28 at 00:00 until the 29 at 00:00 UTC


272334Z 2800/2824 15010KT 6SM -RA SCT025 BKN040
TEMPO 2800/2802 3SM -RA OVC025
FM280400 16004KT P6SM OVC020
TEMPO 2810/2812 3SM BR
FM281200 23007KT P6SM BKN050
FM281500 26012KT P6SM BKN050
KZBW FIR / North America



MET'MAP, your aeronautical weather chart ! - Copyright ORBIFLY December 2007 - Disclaimer

ORBIFLY MET'MAP TEAM :

Programming & Development : Alexandra Zaïnal
Original concept : Baudouin d'Aumeries
Technical & hardware support : Manuel Goepfert
Assistance : Marc-Olivier Méhu




SOURCES & CREDITS :

   NOAA       Earth
Advisory